Time;durP1;ratioP1;P1;durP2;ratioP2;P2;SDS_P1;SDS_P2;PMS_P1;PMS_P2;Temp;Humidity;BMP_temperature;BMP_pressure;BME280_temperature;BME280_humidity;BME280_pressure;Samples;Min_cycle;Max_cycle;Signal;HPM_P1;HPM_P2
2021/10/08 00:00:37;;;;;;;9.20;5.40;;;8.80;86.00;;;;;;5073353;28;20174;-89
2021/10/08 00:03:03;;;;;;;7.07;5.47;;;8.80;86.40;;;;;;5072729;28;20168;-89
2021/10/08 00:05:29;;;;;;;6.87;5.60;;;8.90;86.70;;;;;;5073307;28;20179;-89
2021/10/08 00:07:54;;;;;;;6.03;5.27;;;8.80;87.00;;;;;;5073296;28;20269;-89
2021/10/08 00:10:20;;;;;;;6.60;5.33;;;8.80;87.20;;;;;;5073373;28;20530;-89
2021/10/08 00:12:46;;;;;;;7.20;5.37;;;8.70;87.50;;;;;;5073219;28;20266;-89
2021/10/08 00:15:13;;;;;;;7.07;5.37;;;8.70;87.30;;;;;;5072998;28;20203;-89
2021/10/08 00:17:38;;;;;;;5.40;4.90;;;8.70;87.50;;;;;;5073768;28;20172;-89
2021/10/08 00:20:05;;;;;;;10.43;4.93;;;8.60;87.40;;;;;;5072966;28;20194;-89
2021/10/08 00:22:30;;;;;;;5.33;4.63;;;8.60;87.50;;;;;;5073127;28;20169;-89
2021/10/08 00:24:56;;;;;;;5.47;4.80;;;8.60;87.40;;;;;;5073378;28;20202;-89
2021/10/08 00:27:22;;;;;;;7.63;4.80;;;8.50;87.20;;;;;;5073492;28;20176;-89
2021/10/08 00:29:47;;;;;;;5.73;4.17;;;8.50;86.80;;;;;;5072857;28;20690;-89
2021/10/08 00:32:13;;;;;;;6.97;4.10;;;8.50;86.40;;;;;;5072940;28;20171;-89
2021/10/08 00:34:39;;;;;;;5.57;4.43;;;8.50;86.00;;;;;;5072715;28;20662;-89
2021/10/08 00:37:04;;;;;;;5.10;4.60;;;8.50;85.60;;;;;;5073494;28;20178;-89
2021/10/08 00:39:30;;;;;;;6.50;4.67;;;8.40;85.30;;;;;;5072692;28;20187;-89
2021/10/08 00:41:55;;;;;;;6.37;4.47;;;8.40;85.00;;;;;;5072675;28;20169;-89
2021/10/08 00:44:21;;;;;;;9.50;5.73;;;8.30;84.80;;;;;;5073793;28;20172;-89
2021/10/08 00:46:47;;;;;;;10.97;5.00;;;8.30;84.60;;;;;;5073770;28;20220;-89
2021/10/08 00:49:12;;;;;;;5.33;4.83;;;8.30;84.40;;;;;;5073954;28;20188;-89
2021/10/08 00:51:38;;;;;;;5.67;5.03;;;8.30;84.30;;;;;;5072478;28;20643;-89
2021/10/08 00:54:04;;;;;;;5.27;4.73;;;8.30;84.20;;;;;;5073751;28;20200;-89
2021/10/08 00:56:30;;;;;;;5.60;4.57;;;8.20;84.10;;;;;;5073570;28;20622;-89
2021/10/08 00:58:57;;;;;;;8.03;4.73;;;8.20;83.90;;;;;;5072501;28;20263;-89
2021/10/08 01:01:23;;;;;;;5.33;4.47;;;8.20;83.70;;;;;;5074143;28;20173;-89
2021/10/08 01:03:50;;;;;;;4.97;4.23;;;8.10;83.60;;;;;;5072432;28;20176;-89
2021/10/08 01:06:16;;;;;;;7.30;4.93;;;8.10;83.40;;;;;;5073603;28;20312;-89
2021/10/08 01:08:42;;;;;;;6.70;5.00;;;8.10;83.30;;;;;;5072374;28;20278;-89
2021/10/08 01:11:08;;;;;;;5.20;4.20;;;8.10;83.20;;;;;;5073749;28;20174;-89
2021/10/08 01:13:33;;;;;;;5.30;4.40;;;8.10;83.00;;;;;;5072428;28;20265;-89
2021/10/08 01:15:59;;;;;;;6.30;4.43;;;8.10;82.90;;;;;;5072414;28;20207;-89
2021/10/08 01:18:26;;;;;;;7.40;4.77;;;8.00;82.70;;;;;;5072210;28;20240;-89
2021/10/08 01:20:52;;;;;;;6.87;4.20;;;7.90;82.90;;;;;;5073474;28;20245;-89
2021/10/08 01:23:18;;;;;;;6.50;4.47;;;7.90;82.80;;;;;;5072242;28;20255;-89
2021/10/08 01:25:43;;;;;;;5.40;4.40;;;7.90;82.70;;;;;;5072203;28;20179;-89
2021/10/08 01:28:09;;;;;;;5.27;4.77;;;7.90;82.70;;;;;;5072140;28;20199;-89
2021/10/08 01:30:35;;;;;;;6.40;5.10;;;7.80;83.50;;;;;;5072409;28;20262;-89
2021/10/08 01:33:04;;;;;;;5.03;4.33;;;7.80;83.90;;;;;;5072069;28;20266;-89
2021/10/08 01:35:30;;;;;;;4.57;4.07;;;7.80;83.70;;;;;;5072366;28;20545;-89
2021/10/08 01:37:55;;;;;;;4.67;4.07;;;7.80;83.70;;;;;;5073284;28;20202;-89
2021/10/08 01:40:21;;;;;;;5.43;4.57;;;7.80;83.50;;;;;;5072179;28;20296;-89
2021/10/08 01:42:47;;;;;;;5.97;4.50;;;7.70;83.50;;;;;;5072011;28;20167;-89
2021/10/08 01:45:14;;;;;;;6.27;4.57;;;7.80;83.30;;;;;;5073386;28;20220;-89
2021/10/08 01:47:40;;;;;;;5.53;4.30;;;7.70;83.20;;;;;;5071702;28;20175;-89
2021/10/08 01:50:06;;;;;;;4.77;4.37;;;7.70;83.10;;;;;;5071730;28;20673;-89
2021/10/08 01:52:32;;;;;;;4.60;4.17;;;7.70;83.10;;;;;;5071870;28;20179;-89
2021/10/08 01:54:58;;;;;;;4.80;4.30;;;7.70;83.00;;;;;;5072986;28;20255;-89
2021/10/08 01:57:25;;;;;;;4.57;4.00;;;7.70;82.90;;;;;;5073477;28;20326;-89
2021/10/08 01:59:52;;;;;;;5.13;4.43;;;7.70;82.90;;;;;;5072026;28;20234;-89
2021/10/08 02:02:18;;;;;;;6.10;4.00;;;7.70;83.00;;;;;;5073028;28;20558;-89
2021/10/08 02:04:44;;;;;;;5.00;4.40;;;7.60;83.10;;;;;;5072212;28;20187;-89
2021/10/08 02:07:09;;;;;;;4.50;3.30;;;7.60;83.60;;;;;;5071898;28;20183;-89
2021/10/08 02:09:35;;;;;;;4.30;3.83;;;7.50;83.70;;;;;;5071715;28;20229;-89
2021/10/08 02:12:00;;;;;;;4.57;3.80;;;7.50;84.10;;;;;;5072850;28;20632;-89
2021/10/08 02:14:26;;;;;;;6.20;4.03;;;7.50;84.10;;;;;;5073043;28;20168;-89
2021/10/08 02:16:52;;;;;;;5.23;3.73;;;7.50;84.00;;;;;;5071648;28;20571;-89
2021/10/08 02:19:18;;;;;;;5.80;3.70;;;7.40;84.10;;;;;;5071836;28;20699;-89
2021/10/08 02:21:43;;;;;;;4.27;3.73;;;7.50;84.80;;;;;;5072041;28;20266;-88
2021/10/08 02:24:09;;;;;;;4.10;3.80;;;7.40;85.00;;;;;;5072799;28;20190;-89
2021/10/08 02:26:35;;;;;;;5.73;3.80;;;7.40;85.40;;;;;;5073319;28;20674;-89
2021/10/08 02:29:00;;;;;;;6.40;4.40;;;7.40;86.00;;;;;;5075363;28;20218;-89
2021/10/08 02:31:26;;;;;;;4.57;3.73;;;7.30;86.20;;;;;;5075157;28;20551;-89
2021/10/08 02:33:52;;;;;;;4.27;3.87;;;7.30;86.00;;;;;;5075259;28;20175;-88
2021/10/08 02:36:18;;;;;;;4.17;3.80;;;7.40;85.90;;;;;;5075115;28;20195;-88
2021/10/08 02:38:44;;;;;;;6.13;3.77;;;7.30;85.70;;;;;;5075019;28;20192;-89
2021/10/08 02:41:09;;;;;;;3.60;3.30;;;7.30;85.60;;;;;;5075708;28;20172;-89
2021/10/08 02:43:36;;;;;;;6.27;4.13;;;7.30;86.30;;;;;;5075027;28;20171;-89
2021/10/08 02:46:02;;;;;;;4.27;3.87;;;7.40;86.60;;;;;;5074893;28;20182;-89
2021/10/08 02:48:28;;;;;;;4.87;3.67;;;7.30;86.30;;;;;;5074849;28;20282;-88
2021/10/08 02:50:54;;;;;;;4.60;3.93;;;7.30;86.30;;;;;;5076246;28;20206;-89
2021/10/08 02:53:20;;;;;;;7.20;3.90;;;7.20;85.70;;;;;;5076024;28;20172;-89
2021/10/08 02:55:46;;;;;;;8.03;4.00;;;7.20;86.00;;;;;;5074669;28;20203;-89
2021/10/08 02:58:11;;;;;;;6.60;4.10;;;7.20;85.80;;;;;;5074769;28;20198;-89
2021/10/08 03:00:37;;;;;;;6.50;3.80;;;7.10;86.00;;;;;;5074829;28;20159;-89
2021/10/08 03:03:03;;;;;;;4.83;4.43;;;7.10;86.10;;;;;;5074866;28;20541;-88
2021/10/08 03:05:29;;;;;;;6.37;5.17;;;7.10;85.90;;;;;;5074619;28;20229;-88
2021/10/08 03:07:55;;;;;;;7.57;5.07;;;7.10;86.80;;;;;;5074743;28;20247;-88
2021/10/08 03:10:21;;;;;;;7.07;5.17;;;7.20;87.30;;;;;;5074509;28;20179;-88
2021/10/08 03:12:47;;;;;;;6.70;5.60;;;7.20;87.40;;;;;;5074308;28;20198;-89
2021/10/08 03:15:14;;;;;;;12.60;5.37;;;7.20;87.70;;;;;;5074306;28;20199;-88
2021/10/08 03:17:40;;;;;;;6.67;5.30;;;7.10;88.00;;;;;;5075453;28;20262;-88
2021/10/08 03:20:07;;;;;;;7.17;4.83;;;6.90;88.20;;;;;;5074315;28;20262;-88
2021/10/08 03:22:34;;;;;;;4.73;4.23;;;6.90;88.70;;;;;;5075294;28;20186;-88
2021/10/08 03:25:00;;;;;;;44.30;6.33;;;6.80;89.00;;;;;;5075609;28;20176;-88
2021/10/08 03:27:26;;;;;;;15.57;6.83;;;6.80;88.90;;;;;;5075420;28;20234;-88
2021/10/08 03:29:51;;;;;;;16.13;6.80;;;6.60;89.10;;;;;;5074458;28;20253;-88
2021/10/08 03:32:17;;;;;;;21.47;7.53;;;6.50;89.50;;;;;;5075417;28;20659;-88
2021/10/08 03:34:43;;;;;;;7.13;6.00;;;6.40;89.80;;;;;;5074044;28;20176;-89
2021/10/08 03:37:12;;;;;;;7.43;5.87;;;6.30;90.00;;;;;;5074718;28;20211;-89
2021/10/08 03:39:41;;;;;;;7.93;7.00;;;6.30;90.10;;;;;;5073724;28;20202;-88
2021/10/08 03:42:12;;;;;;;10.90;6.97;;;6.20;90.20;;;;;;5075621;28;20218;-89
2021/10/08 03:44:39;;;;;;;10.87;9.10;;;6.10;90.40;;;;;;5073920;28;20174;-89
2021/10/08 03:47:14;;;;;;;9.47;8.23;;;6.20;90.70;;;;;;5075263;28;20210;-88
2021/10/08 03:49:42;;;;;;;9.47;8.47;;;6.20;90.90;;;;;;5073739;28;20202;-89
2021/10/08 03:52:08;;;;;;;9.23;7.70;;;6.30;91.00;;;;;;5073829;28;20243;-88
2021/10/08 03:54:34;;;;;;;9.70;7.13;;;6.40;91.10;;;;;;5075055;28;20190;-88
2021/10/08 03:57:00;;;;;;;8.27;7.17;;;6.40;90.90;;;;;;5073867;28;20203;-89
2021/10/08 03:59:26;;;;;;;7.53;6.83;;;6.50;90.60;;;;;;5073727;28;20268;-89
2021/10/08 04:01:51;;;;;;;7.10;6.13;;;6.60;90.60;;;;;;5074288;28;20228;-88
2021/10/08 04:04:17;;;;;;;8.53;6.23;;;6.60;90.50;;;;;;5073990;28;20231;-88
2021/10/08 04:06:43;;;;;;;8.80;6.03;;;6.70;90.40;;;;;;5073664;28;20252;-89
2021/10/08 04:09:09;;;;;;;9.23;6.10;;;6.70;90.40;;;;;;5073235;28;20214;-89
2021/10/08 04:11:35;;;;;;;6.30;5.70;;;6.80;90.40;;;;;;5073451;28;20215;-89
2021/10/08 04:14:01;;;;;;;7.27;5.80;;;6.80;90.30;;;;;;5073357;28;20175;-88
2021/10/08 04:16:27;;;;;;;6.53;5.20;;;6.80;90.10;;;;;;5074488;28;20223;-88
2021/10/08 04:18:53;;;;;;;8.60;5.37;;;6.70;90.00;;;;;;5074471;28;20675;-88
2021/10/08 04:21:18;;;;;;;6.93;5.23;;;6.70;89.90;;;;;;5073237;28;20274;-88
2021/10/08 04:23:44;;;;;;;5.77;5.17;;;6.70;89.80;;;;;;5073194;28;20178;-88
2021/10/08 04:26:10;;;;;;;5.97;5.37;;;6.60;89.90;;;;;;5073377;28;20564;-88
2021/10/08 04:28:36;;;;;;;5.40;4.70;;;6.70;89.90;;;;;;5073242;28;20199;-88
2021/10/08 04:31:02;;;;;;;5.97;5.07;;;6.70;89.90;;;;;;5074242;28;20178;-88
2021/10/08 04:33:28;;;;;;;5.00;4.60;;;6.70;89.80;;;;;;5074219;28;20244;-89
2021/10/08 04:36:01;;;;;;;5.80;4.83;;;6.70;89.80;;;;;;5072708;28;20671;-88
2021/10/08 04:38:28;;;;;;;6.47;4.40;;;6.60;89.60;;;;;;5074195;28;20266;-88
2021/10/08 04:40:54;;;;;;;5.70;4.40;;;6.60;89.50;;;;;;5072609;28;20175;-88
2021/10/08 04:43:20;;;;;;;5.03;4.53;;;6.60;89.30;;;;;;5074053;28;20183;-88
2021/10/08 04:45:46;;;;;;;5.33;4.83;;;6.50;89.10;;;;;;5072686;28;20183;-88
2021/10/08 04:48:12;;;;;;;6.27;4.90;;;6.50;88.70;;;;;;5072764;28;20211;-88
2021/10/08 04:50:38;;;;;;;5.43;4.37;;;6.50;88.40;;;;;;5072746;28;20186;-88
2021/10/08 04:53:17;;;;;;;6.13;4.67;;;6.60;88.20;;;;;;5073095;28;20179;-89
2021/10/08 04:55:43;;;;;;;5.87;4.33;;;6.50;87.90;;;;;;5073941;28;20568;-88
2021/10/08 04:58:09;;;;;;;6.37;4.93;;;6.50;87.70;;;;;;5072765;28;20200;-88
2021/10/08 05:00:36;;;;;;;6.60;4.90;;;6.50;87.40;;;;;;5072398;28;20175;-88
2021/10/08 05:03:13;;;;;;;7.93;5.30;;;6.50;87.20;;;;;;5072260;28;20555;-88
2021/10/08 05:05:39;;;;;;;6.13;4.60;;;6.40;87.00;;;;;;5072218;28;20209;-88
2021/10/08 05:08:05;;;;;;;8.90;5.23;;;6.50;86.70;;;;;;5073333;28;20199;-88
2021/10/08 05:10:32;;;;;;;8.77;5.30;;;6.40;86.40;;;;;;5072210;28;20203;-88
2021/10/08 05:12:58;;;;;;;8.30;5.67;;;6.40;86.20;;;;;;5072476;28;20670;-88
2021/10/08 05:15:24;;;;;;;7.57;5.63;;;6.40;86.00;;;;;;5072011;28;20238;-88
2021/10/08 05:17:50;;;;;;;9.03;5.93;;;6.30;85.90;;;;;;5073610;28;20187;-88
2021/10/08 05:20:15;;;;;;;8.33;5.50;;;6.30;86.00;;;;;;5073674;28;20194;-88
2021/10/08 05:22:41;;;;;;;6.27;5.63;;;6.30;86.00;;;;;;5073793;28;20199;-88
2021/10/08 05:25:07;;;;;;;7.67;5.37;;;6.30;86.00;;;;;;5072609;28;20175;-88
2021/10/08 05:27:33;;;;;;;8.00;5.70;;;6.30;86.00;;;;;;5072633;28;20549;-88
2021/10/08 05:29:58;;;;;;;12.70;6.20;;;6.30;85.90;;;;;;5072828;28;20202;-88
2021/10/08 05:32:24;;;;;;;14.20;6.10;;;6.30;85.90;;;;;;5072617;28;20270;-88
2021/10/08 05:34:50;;;;;;;12.17;6.43;;;6.30;85.80;;;;;;5072550;28;20232;-88
2021/10/08 05:37:15;;;;;;;9.07;6.30;;;6.30;85.90;;;;;;5072407;28;20212;-88
2021/10/08 05:39:41;;;;;;;10.43;6.03;;;6.30;85.90;;;;;;5072226;28;20202;-88
2021/10/08 05:42:07;;;;;;;8.77;6.30;;;6.30;85.80;;;;;;5072189;28;20174;-89
2021/10/08 05:44:32;;;;;;;7.00;6.33;;;6.20;85.80;;;;;;5072045;28;20185;-88
2021/10/08 05:46:58;;;;;;;11.77;6.97;;;6.20;85.80;;;;;;5073322;28;20175;-88
2021/10/08 05:49:24;;;;;;;7.13;6.10;;;6.20;85.80;;;;;;5073317;28;20603;-88
2021/10/08 05:51:50;;;;;;;7.33;6.07;;;6.20;85.90;;;;;;5071853;28;20659;-88
2021/10/08 05:54:15;;;;;;;6.50;5.80;;;6.20;85.70;;;;;;5072081;28;20183;-88
2021/10/08 05:56:41;;;;;;;14.33;6.00;;;6.10;85.80;;;;;;5073256;28;20213;-88
2021/10/08 05:59:07;;;;;;;10.07;5.70;;;6.10;85.70;;;;;;5072441;28;20209;-88
2021/10/08 06:01:32;;;;;;;9.97;6.37;;;6.00;85.80;;;;;;5073587;28;20240;-88
2021/10/08 06:04:01;;;;;;;11.80;6.10;;;6.00;85.90;;;;;;5075809;28;20175;-88
2021/10/08 06:06:26;;;;;;;8.57;6.20;;;6.10;85.90;;;;;;5077746;28;20519;-88
2021/10/08 06:08:52;;;;;;;6.60;5.83;;;6.10;85.90;;;;;;5075533;28;20195;-88
2021/10/08 06:11:18;;;;;;;10.67;5.90;;;6.00;85.90;;;;;;5075828;28;20189;-88
2021/10/08 06:13:44;;;;;;;6.73;5.93;;;6.00;85.90;;;;;;5077060;28;20172;-88
2021/10/08 06:16:10;;;;;;;9.73;6.23;;;6.10;86.10;;;;;;5076062;28;20556;-88
2021/10/08 06:18:36;;;;;;;13.73;5.77;;;6.10;86.50;;;;;;5075668;28;20204;-88
2021/10/08 06:21:01;;;;;;;5.63;5.03;;;6.00;86.40;;;;;;5075672;28;20179;-88
2021/10/08 06:23:27;;;;;;;5.60;5.10;;;6.00;86.30;;;;;;5075648;28;20179;-88
2021/10/08 06:25:53;;;;;;;5.87;5.30;;;6.00;86.40;;;;;;5075808;28;20218;-88
2021/10/08 06:28:19;;;;;;;6.23;5.63;;;6.00;86.80;;;;;;5075759;28;20675;-88
2021/10/08 06:30:44;;;;;;;5.80;4.80;;;6.00;86.80;;;;;;5077035;28;20225;-88
2021/10/08 06:33:10;;;;;;;9.77;5.30;;;6.10;86.80;;;;;;5075798;28;20203;-88
2021/10/08 06:35:38;;;;;;;6.80;4.73;;;6.10;86.60;;;;;;5076097;28;20207;-88
2021/10/08 06:38:04;;;;;;;7.10;5.83;;;6.10;86.50;;;;;;5076431;28;20537;-88
2021/10/08 06:40:30;;;;;;;6.27;5.20;;;6.10;86.40;;;;;;5075470;28;20249;-88
2021/10/08 06:42:56;;;;;;;9.03;5.93;;;6.10;86.50;;;;;;5075564;28;20229;-88
2021/10/08 06:45:22;;;;;;;5.47;4.87;;;6.20;86.50;;;;;;5075288;28;20186;-88
2021/10/08 06:47:48;;;;;;;5.43;4.80;;;6.10;86.60;;;;;;5075141;28;20232;-88
2021/10/08 06:50:14;;;;;;;6.13;4.70;;;6.20;86.50;;;;;;5075624;28;20273;-88
2021/10/08 06:52:39;;;;;;;7.37;6.67;;;6.20;86.50;;;;;;5076359;28;20190;-89
2021/10/08 06:55:06;;;;;;;8.40;7.47;;;6.20;87.10;;;;;;5075037;28;20183;-88
2021/10/08 06:57:32;;;;;;;11.70;8.23;;;6.30;88.30;;;;;;5074939;28;20267;-87
2021/10/08 06:59:57;;;;;;;9.67;8.60;;;6.40;89.00;;;;;;5075150;28;20242;-87
2021/10/08 07:02:23;;;;;;;9.70;8.57;;;6.40;89.40;;;;;;5076029;28;20721;-89
2021/10/08 07:04:48;;;;;;;11.63;10.13;;;6.50;89.70;;;;;;5075104;28;20168;-88
2021/10/08 07:07:14;;;;;;;11.43;10.17;;;6.60;89.80;;;;;;5075021;28;20206;-87
2021/10/08 07:09:40;;;;;;;13.10;11.03;;;6.70;89.90;;;;;;5075723;28;20282;-87
2021/10/08 07:12:05;;;;;;;10.07;8.97;;;6.70;89.90;;;;;;5074408;28;20191;-87
2021/10/08 07:14:31;;;;;;;11.57;10.37;;;6.70;89.90;;;;;;5075513;28;20171;-87
2021/10/08 07:16:57;;;;;;;16.30;11.53;;;6.80;90.30;;;;;;5075409;28;20202;-88
2021/10/08 07:19:23;;;;;;;18.13;12.60;;;7.00;90.70;;;;;;5074279;28;20195;-88
2021/10/08 07:21:50;;;;;;;16.97;13.63;;;7.20;91.20;;;;;;5075439;28;20203;-88
2021/10/08 07:24:16;;;;;;;20.80;14.07;;;7.40;91.70;;;;;;5075590;28;20168;-88
2021/10/08 07:26:41;;;;;;;21.13;14.10;;;7.60;92.10;;;;;;5074107;28;20232;-88
2021/10/08 07:29:07;;;;;;;21.00;13.97;;;7.80;92.30;;;;;;5073962;28;20195;-88
2021/10/08 07:31:33;;;;;;;18.90;14.93;;;8.00;92.50;;;;;;5074113;28;20191;-89
2021/10/08 07:33:59;;;;;;;20.53;14.57;;;8.20;92.60;;;;;;5075258;28;20175;-90
2021/10/08 07:36:26;;;;;;;22.37;16.30;;;8.20;92.60;;;;;;5074160;28;20202;-91
2021/10/08 07:38:52;;;;;;;28.83;17.20;;;8.40;92.80;;;;;;5074244;28;20759;-91
2021/10/08 07:41:18;;;;;;;29.00;17.03;;;8.50;92.80;;;;;;5074165;28;20262;-91
2021/10/08 07:43:44;;;;;;;31.23;18.83;;;8.60;92.80;;;;;;5074172;28;20179;-91
2021/10/08 07:46:10;;;;;;;28.57;19.87;;;8.70;92.90;;;;;;5073995;28;20249;-91
2021/10/08 07:48:37;;;;;;;28.67;19.37;;;8.90;93.10;;;;;;5073791;28;20199;-91
2021/10/08 07:51:03;;;;;;;32.03;20.33;;;9.00;93.00;;;;;;5073833;28;20258;-91
2021/10/08 07:53:29;;;;;;;25.93;18.57;;;9.20;93.10;;;;;;5073905;28;20324;-91
2021/10/08 07:55:55;;;;;;;26.50;19.30;;;9.30;93.10;;;;;;5073791;28;20233;-91
2021/10/08 07:58:26;;;;;;;29.80;19.50;;;9.40;92.90;;;;;;5073812;28;20701;-91
2021/10/08 08:00:56;;;;;;;28.03;18.83;;;9.50;93.00;;;;;;5073683;28;20592;-92
2021/10/08 08:03:22;;;;;;;24.53;17.37;;;9.70;92.90;;;;;;5073933;28;20194;-91
2021/10/08 08:05:48;;;;;;;26.37;18.60;;;9.80;92.80;;;;;;5073543;28;20190;-91
2021/10/08 08:08:14;;;;;;;22.00;18.63;;;9.90;92.70;;;;;;5073824;28;20202;-91
2021/10/08 08:10:40;;;;;;;29.27;18.00;;;10.00;92.50;;;;;;5073709;28;20184;-91
2021/10/08 08:13:05;;;;;;;21.90;16.20;;;10.00;92.40;;;;;;5073576;28;20186;-91
2021/10/08 08:15:31;;;;;;;22.93;16.10;;;10.10;92.30;;;;;;5073584;28;20203;-91
2021/10/08 08:17:57;;;;;;;20.83;16.23;;;10.20;92.20;;;;;;5073695;28;20179;-91
2021/10/08 08:20:23;;;;;;;19.27;14.83;;;10.30;92.10;;;;;;5073360;28;20179;-91
2021/10/08 08:22:49;;;;;;;21.37;14.50;;;10.50;91.80;;;;;;5073433;28;20175;-91
2021/10/08 08:25:14;;;;;;;18.73;13.70;;;10.70;91.40;;;;;;5073134;28;20176;-91
2021/10/08 08:27:40;;;;;;;18.33;13.70;;;10.80;91.10;;;;;;5073108;28;20706;-92
2021/10/08 08:30:06;;;;;;;18.70;14.33;;;10.80;91.10;;;;;;5073437;28;20179;-91
2021/10/08 08:32:33;;;;;;;18.47;13.70;;;11.10;91.10;;;;;;5073097;28;20175;-91
2021/10/08 08:35:04;;;;;;;18.70;12.07;;;11.20;90.90;;;;;;5073254;28;20203;-91
2021/10/08 08:37:29;;;;;;;16.83;11.53;;;11.30;90.10;;;;;;5072937;28;20683;-91
2021/10/08 08:39:55;;;;;;;12.40;11.13;;;11.40;89.50;;;;;;5073127;28;20225;-91
2021/10/08 08:42:21;;;;;;;18.40;11.47;;;11.60;89.40;;;;;;5073369;28;20568;-91
2021/10/08 08:44:47;;;;;;;20.27;11.83;;;11.70;88.70;;;;;;5073462;28;20178;-92
2021/10/08 08:47:18;;;;;;;15.30;11.97;;;11.80;88.60;;;;;;5073167;28;20179;-92
2021/10/08 08:49:45;;;;;;;12.50;11.20;;;11.90;88.40;;;;;;5073027;28;20675;-91
2021/10/08 08:52:11;;;;;;;14.87;10.30;;;12.00;87.60;;;;;;5073217;28;20183;-91
2021/10/08 08:54:39;;;;;;;13.87;10.53;;;12.10;87.10;;;;;;5072931;28;20186;-91
2021/10/08 08:57:12;;;;;;;17.43;12.23;;;12.30;87.40;;;;;;5073123;28;20284;-91
2021/10/08 08:59:57;;;;;;;18.03;11.37;;;12.30;88.10;;;;;;5073207;28;20243;-91
2021/10/08 09:02:28;;;;;;;15.27;10.17;;;12.50;86.80;;;;;;5072818;28;20202;-91
2021/10/08 09:04:53;;;;;;;11.70;10.17;;;12.60;86.80;;;;;;5072769;28;20258;-91
2021/10/08 09:07:20;;;;;;;15.40;10.13;;;12.70;86.30;;;;;;5072972;28;20211;-91
2021/10/08 09:09:46;;;;;;;12.27;9.73;;;12.80;85.80;;;;;;5072788;28;20226;-91
2021/10/08 09:12:12;;;;;;;14.07;9.33;;;12.90;85.70;;;;;;5072814;28;20179;-91
2021/10/08 09:14:38;;;;;;;11.30;9.67;;;13.00;85.70;;;;;;5073167;28;20183;-91
2021/10/08 09:17:08;;;;;;;11.57;8.43;;;13.20;85.00;;;;;;5072783;28;20207;-91
2021/10/08 09:20:05;;;;;;;12.57;9.33;;;13.30;84.60;;;;;;5073726;28;20347;-91
2021/10/08 09:22:49;;;;;;;10.83;8.53;;;13.60;85.50;;;;;;5069085;28;20190;-92
2021/10/08 09:25:30;;;;;;;9.93;7.33;;;13.70;84.30;;;;;;5072583;28;20160;-91
2021/10/08 09:28:04;;;;;;;8.53;6.53;;;13.80;83.90;;;;;;5075477;28;20171;-90
2021/10/08 09:30:43;;;;;;;13.93;6.50;;;13.90;82.90;;;;;;5076876;28;20167;-90
2021/10/08 09:33:11;;;;;;;8.20;6.27;;;14.10;82.90;;;;;;5075200;28;20186;-90
2021/10/08 09:35:38;;;;;;;8.33;5.30;;;14.20;82.10;;;;;;5073716;28;20210;-92
2021/10/08 09:38:11;;;;;;;9.33;5.60;;;14.30;81.20;;;;;;5074077;28;20598;-90
2021/10/08 09:40:40;;;;;;;7.47;5.90;;;14.40;80.70;;;;;;5074096;28;20168;-90
2021/10/08 09:43:25;;;;;;;9.90;5.27;;;14.50;80.70;;;;;;5073918;28;20599;-90
2021/10/08 09:45:52;;;;;;;8.47;5.70;;;14.70;80.40;;;;;;5073653;28;20647;-89
2021/10/08 09:48:24;;;;;;;8.23;5.07;;;14.70;80.30;;;;;;5074751;28;20202;-91
2021/10/08 09:51:28;;;;;;;6.80;4.87;;;14.80;79.20;;;;;;5074141;28;20175;-91
2021/10/08 09:53:55;;;;;;;14.33;5.43;;;14.90;79.10;;;;;;5072309;28;20322;-91
2021/10/08 09:56:35;;;;;;;10.63;5.30;;;15.10;79.00;;;;;;5075965;28;20584;-91
2021/10/08 09:59:04;;;;;;;6.27;5.63;;;15.20;78.50;;;;;;5074914;28;20221;-91
2021/10/08 10:01:35;;;;;;;7.63;5.40;;;15.20;78.40;;;;;;5074617;28;20171;-91
2021/10/08 10:04:03;;;;;;;14.13;5.60;;;15.30;78.10;;;;;;5075168;28;20679;-91
2021/10/08 10:06:28;;;;;;;8.18;5.35;;;15.30;78.10;;;;;;5074465;28;20183;-92
2021/10/08 10:08:54;;;;;;;8.45;5.78;;;15.50;78.20;;;;;;5074418;28;20206;-91
2021/10/08 10:11:23;;;;;;;8.88;6.15;;;15.60;78.50;;;;;;5073344;28;20190;-91
2021/10/08 10:13:52;;;;;;;9.93;5.97;;;15.70;77.60;;;;;;5074481;28;20620;-91
2021/10/08 10:16:19;;;;;;;7.88;5.53;;;15.70;78.60;;;;;;5074767;28;20205;-91
2021/10/08 10:18:51;;;;;;;6.85;6.10;;;15.70;76.80;;;;;;5074449;28;20644;-91
2021/10/08 10:21:25;;;;;;;7.05;5.82;;;15.80;77.20;;;;;;5074563;28;20262;-91
2021/10/08 10:23:56;;;;;;;10.93;7.40;;;15.80;78.00;;;;;;5074372;28;20233;-90
2021/10/08 10:26:23;;;;;;;7.80;5.60;;;15.90;77.60;;;;;;5074873;28;20273;-90
2021/10/08 10:28:49;;;;;;;6.30;5.00;;;16.00;76.80;;;;;;5075226;28;20195;-90
2021/10/08 10:31:16;;;;;;;7.57;5.13;;;16.00;76.30;;;;;;5075660;28;20206;-91
2021/10/08 10:33:43;;;;;;;7.38;5.28;;;16.10;76.70;;;;;;5073165;28;20663;-92
2021/10/08 10:36:42;;;;;;;6.32;5.72;;;16.20;75.90;;;;;;5074799;28;20207;-90
2021/10/08 10:39:21;;;;;;;10.70;6.57;;;16.20;76.20;;;;;;5063707;28;20663;-91
2021/10/08 10:42:13;;;;;;;8.38;5.45;;;16.20;75.50;;;;;;5074768;28;20179;-91
2021/10/08 10:44:59;;;;;;;6.97;5.93;;;16.30;74.20;;;;;;5074825;28;20218;-90
2021/10/08 10:47:34;;;;;;;9.57;5.45;;;16.30;74.40;;;;;;5074888;28;20203;-90
2021/10/08 10:50:26;;;;;;;7.47;5.55;;;16.40;75.40;;;;;;5077406;28;20320;-91
2021/10/08 10:52:59;;;;;;;5.95;5.05;;;16.50;74.30;;;;;;5078219;28;20159;-91
2021/10/08 10:55:31;;;;;;;9.32;5.82;;;16.60;74.40;;;;;;5077637;28;20628;-91
2021/10/08 10:57:59;;;;;;;8.40;5.50;;;16.70;73.90;;;;;;5077349;28;20175;-91
2021/10/08 11:00:38;;;;;;;13.18;4.68;;;16.80;73.70;;;;;;5077181;28;20183;-90
2021/10/08 11:03:12;;;;;;;5.07;4.22;;;16.90;73.80;;;;;;5076591;28;20686;-91
2021/10/08 11:05:39;;;;;;;6.28;4.68;;;17.00;71.90;;;;;;5077008;28;20262;-91
2021/10/08 11:08:07;;;;;;;7.53;4.53;;;17.10;72.00;;;;;;5083676;28;20200;-93
2021/10/08 11:10:38;;;;;;;7.43;4.68;;;17.10;71.80;;;;;;5081738;28;20674;-91
2021/10/08 11:13:19;;;;;;;7.13;5.28;;;17.20;72.10;;;;;;5074936;28;20171;-90
2021/10/08 11:16:00;;;;;;;7.22;4.28;;;17.20;71.40;;;;;;5075755;28;20191;-90
2021/10/08 11:18:46;;;;;;;7.95;4.25;;;17.30;70.30;;;;;;5075701;28;20221;-90
2021/10/08 11:21:37;;;;;;;8.27;4.38;;;17.30;69.40;;;;;;5075828;28;20160;-90
2021/10/08 11:24:22;;;;;;;7.53;4.20;;;17.30;69.50;;;;;;5071613;28;20184;-89
2021/10/08 11:26:57;;;;;;;4.50;3.17;;;17.20;70.10;;;;;;5074411;28;20278;-89
2021/10/08 11:29:26;;;;;;;5.65;4.00;;;17.30;69.50;;;;;;5074436;28;20788;-90
2021/10/08 11:32:00;;;;;;;5.90;3.70;;;17.10;69.60;;;;;;5075540;28;20167;-90
2021/10/08 11:34:26;;;;;;;6.70;3.67;;;16.90;70.20;;;;;;5074819;28;20214;-91
2021/10/08 11:36:57;;;;;;;8.50;4.22;;;16.80;70.80;;;;;;5074488;28;20227;-91
2021/10/08 11:39:27;;;;;;;7.03;4.28;;;16.80;69.80;;;;;;5075651;28;20698;-91
2021/10/08 11:42:03;;;;;;;7.45;3.38;;;17.00;69.40;;;;;;5074734;28;20178;-91
2021/10/08 11:44:36;;;;;;;5.43;3.20;;;17.20;69.60;;;;;;5074190;28;20590;-90
2021/10/08 11:47:10;;;;;;;11.25;3.92;;;17.30;69.00;;;;;;5074182;28;20174;-90
2021/10/08 11:49:45;;;;;;;11.63;3.70;;;17.30;68.90;;;;;;5073893;28;20201;-90
2021/10/08 11:52:13;;;;;;;5.85;3.33;;;17.00;68.90;;;;;;5074011;28;20182;-91
2021/10/08 11:54:39;;;;;;;4.78;3.75;;;17.00;69.80;;;;;;5075054;28;20236;-90
2021/10/08 11:57:09;;;;;;;4.95;3.13;;;17.20;69.80;;;;;;5075064;28;20191;-90
2021/10/08 11:59:37;;;;;;;5.75;3.00;;;17.10;70.20;;;;;;5072814;28;20203;-91
2021/10/08 12:02:21;;;;;;;6.32;2.75;;;16.90;68.40;;;;;;5073591;28;20175;-91
2021/10/08 12:05:00;;;;;;;5.28;2.53;;;16.80;69.20;;;;;;5074774;28;20151;-90
2021/10/08 12:07:37;;;;;;;3.70;2.60;;;16.80;68.20;;;;;;5073723;28;20178;-90
2021/10/08 12:10:13;;;;;;;5.95;2.65;;;17.00;68.30;;;;;;5073295;28;20199;-90
2021/10/08 12:13:05;;;;;;;7.65;3.13;;;17.20;68.20;;;;;;5074776;28;20178;-90
2021/10/08 12:15:34;;;;;;;6.90;2.67;;;16.90;68.50;;;;;;5072684;28;20207;-91
2021/10/08 12:18:03;;;;;;;5.45;2.53;;;16.90;68.40;;;;;;5073771;28;20322;-88
2021/10/08 12:20:32;;;;;;;4.18;2.97;;;16.90;69.60;;;;;;5074860;28;20208;-92
2021/10/08 12:23:13;;;;;;;5.75;2.90;;;17.10;69.20;;;;;;5076285;28;20167;-92
2021/10/08 12:25:41;;;;;;;6.40;3.35;;;17.30;67.70;;;;;;5074980;28;20181;-91
2021/10/08 12:28:08;;;;;;;5.68;2.92;;;17.50;67.60;;;;;;5074164;28;20285;-89
2021/10/08 12:30:47;;;;;;;5.95;2.88;;;17.50;67.20;;;;;;5073000;28;20175;-90
2021/10/08 12:33:21;;;;;;;11.23;3.22;;;17.50;67.20;;;;;;5073656;28;20217;-89
2021/10/08 12:36:16;;;;;;;3.83;3.22;;;17.50;67.40;;;;;;5072830;28;20195;-88
2021/10/08 12:39:02;;;;;;;3.90;2.78;;;17.50;66.30;;;;;;5073991;28;20245;-88
2021/10/08 12:41:32;;;;;;;6.82;3.25;;;17.60;66.70;;;;;;5072841;28;20178;-89
2021/10/08 12:44:05;;;;;;;4.65;2.92;;;17.70;65.80;;;;;;5073665;28;20156;-88
2021/10/08 12:46:35;;;;;;;4.93;2.50;;;17.70;66.20;;;;;;5074151;28;20233;-88
2021/10/08 12:49:01;;;;;;;6.30;2.90;;;17.90;66.80;;;;;;5074697;28;20191;-89
2021/10/08 12:51:27;;;;;;;5.70;2.70;;;17.90;65.40;;;;;;5072927;28;20172;-88
2021/10/08 12:54:33;;;;;;;5.93;2.72;;;17.90;66.60;;;;;;5072624;28;20266;-88